createdAt,value
2023-05-22T00:01:46.997Z,4.10
2023-05-22T00:04:21.676Z,4.50
2023-05-22T00:06:49.886Z,4.50
2023-05-22T00:09:18.214Z,3.80
2023-05-22T00:11:46.422Z,4.90
2023-05-22T00:14:14.199Z,4.40
2023-05-22T00:16:42.784Z,4.00
2023-05-22T00:19:13.835Z,4.40
2023-05-22T00:21:43.178Z,4.00
2023-05-22T00:24:11.126Z,4.30
2023-05-22T00:26:38.927Z,4.00
2023-05-22T00:29:06.888Z,4.30
2023-05-22T00:31:34.948Z,4.60
2023-05-22T00:34:02.865Z,4.30
2023-05-22T00:36:31.007Z,5.50
2023-05-22T00:39:02.090Z,3.90
2023-05-22T00:41:30.802Z,3.90
2023-05-22T00:43:58.696Z,4.30
2023-05-22T00:46:26.486Z,4.10
2023-05-22T00:48:54.547Z,4.20
2023-05-22T00:51:22.891Z,4.40
2023-05-22T00:53:52.544Z,4.50
2023-05-22T00:56:22.071Z,4.40
2023-05-22T00:58:52.585Z,4.10
2023-05-22T01:01:20.676Z,3.70
2023-05-22T01:03:49.235Z,4.00
2023-05-22T01:06:21.627Z,3.80
2023-05-22T01:11:22.436Z,3.60
2023-05-22T01:13:59.359Z,3.50
2023-05-22T01:16:42.057Z,4.10
2023-05-22T01:19:19.345Z,4.80
2023-05-22T01:22:11.714Z,4.20
2023-05-22T01:24:46.790Z,3.70
2023-05-22T01:27:42.378Z,3.90
2023-05-22T01:30:18.326Z,4.80
2023-05-22T01:32:47.240Z,4.00
2023-05-22T01:35:20.261Z,4.00
2023-05-22T01:37:48.462Z,4.20
2023-05-22T01:40:17.433Z,3.70
2023-05-22T01:42:45.999Z,4.50
2023-05-22T01:45:14.828Z,4.20
2023-05-22T01:47:43.750Z,3.90
2023-05-22T01:50:11.966Z,4.10
2023-05-22T01:52:54.380Z,4.00
2023-05-22T01:55:43.236Z,3.80
2023-05-22T01:58:23.208Z,4.50
2023-05-22T02:00:55.633Z,3.70
2023-05-22T02:05:57.769Z,3.90
2023-05-22T02:10:56.230Z,3.80
2023-05-22T02:13:24.599Z,4.00
2023-05-22T02:15:52.786Z,3.50
2023-05-22T02:18:20.805Z,4.20
2023-05-22T02:20:48.936Z,4.00
2023-05-22T02:23:16.896Z,4.50
2023-05-22T02:25:45.034Z,4.10
2023-05-22T02:28:12.705Z,3.70
2023-05-22T02:30:40.696Z,4.20
2023-05-22T02:33:09.675Z,3.80
2023-05-22T02:35:37.574Z,3.90
2023-05-22T02:38:05.803Z,3.70
2023-05-22T02:40:36.759Z,4.00
2023-05-22T02:43:05.130Z,3.60
2023-05-22T02:45:33.080Z,3.70
2023-05-22T02:48:06.029Z,4.20
2023-05-22T02:50:33.952Z,4.10
2023-05-22T02:53:01.832Z,4.10
2023-05-22T02:55:29.705Z,3.70
2023-05-22T02:57:57.817Z,3.40
2023-05-22T03:00:25.772Z,3.80
2023-05-22T03:02:53.724Z,3.20
2023-05-22T03:05:21.599Z,4.00
2023-05-22T03:07:49.469Z,3.80
2023-05-22T03:10:17.427Z,4.40
2023-05-22T03:12:45.340Z,4.30
2023-05-22T03:15:13.133Z,3.60
2023-05-22T03:17:41.073Z,4.00
2023-05-22T03:20:09.379Z,4.30
2023-05-22T03:22:37.383Z,3.70
2023-05-22T03:25:06.480Z,4.90
2023-05-22T03:27:34.492Z,4.10
2023-05-22T03:30:03.028Z,4.10
2023-05-22T03:32:30.778Z,3.90
2023-05-22T03:34:59.112Z,3.90
2023-05-22T03:37:26.940Z,4.00
2023-05-22T03:39:54.784Z,4.00
2023-05-22T03:42:22.867Z,3.50
2023-05-22T03:44:50.735Z,3.90
2023-05-22T03:47:18.475Z,3.90
2023-05-22T03:49:47.145Z,4.00
2023-05-22T03:52:15.036Z,3.80
2023-05-22T03:54:42.782Z,3.80
2023-05-22T03:57:10.731Z,3.40
2023-05-22T03:59:38.606Z,3.80
2023-05-22T04:02:06.988Z,4.40
2023-05-22T04:04:38.666Z,3.60
2023-05-22T04:07:08.573Z,3.70
2023-05-22T04:09:36.783Z,3.80
2023-05-22T04:12:05.014Z,4.30
2023-05-22T04:14:33.262Z,3.90
2023-05-22T04:17:01.171Z,4.00
2023-05-22T04:19:30.348Z,4.50
2023-05-22T04:21:59.087Z,3.90
2023-05-22T04:24:27.878Z,4.00
2023-05-22T04:26:56.403Z,4.10
2023-05-22T04:29:24.803Z,4.30
2023-05-22T04:31:54.650Z,4.40
2023-05-22T04:34:22.874Z,3.80
2023-05-22T04:36:56.239Z,4.80
2023-05-22T04:39:26.478Z,4.60
2023-05-22T04:41:54.523Z,4.80
2023-05-22T04:44:23.127Z,5.10
2023-05-22T04:46:51.393Z,4.60
2023-05-22T04:49:19.124Z,5.00
2023-05-22T04:51:46.996Z,4.40
2023-05-22T04:54:14.751Z,5.00
2023-05-22T04:56:42.607Z,4.40
2023-05-22T04:59:10.371Z,4.40
2023-05-22T05:01:38.651Z,4.80
2023-05-22T05:04:06.805Z,4.50
2023-05-22T05:06:34.879Z,4.60
2023-05-22T05:09:03.113Z,3.90
2023-05-22T05:11:31.017Z,4.50
2023-05-22T05:13:58.769Z,4.10
2023-05-22T05:16:26.770Z,3.60
2023-05-22T05:18:55.805Z,4.20
2023-05-22T05:21:28.028Z,3.90
2023-05-22T05:23:55.998Z,4.10
2023-05-22T05:26:24.233Z,4.40
2023-05-22T05:28:52.064Z,4.50
2023-05-22T05:31:20.890Z,4.60
2023-05-22T05:33:49.228Z,4.20
2023-05-22T05:36:16.928Z,4.00
2023-05-22T05:38:44.821Z,4.50
2023-05-22T05:41:12.769Z,3.90
2023-05-22T05:43:40.516Z,3.60
2023-05-22T05:46:08.523Z,3.60
2023-05-22T05:48:36.283Z,3.60
2023-05-22T05:51:05.334Z,4.10
2023-05-22T05:53:33.577Z,3.80
2023-05-22T05:56:01.564Z,4.00
2023-05-22T05:58:29.364Z,3.50
2023-05-22T06:00:57.576Z,3.80
2023-05-22T06:03:28.217Z,3.80
2023-05-22T06:05:57.775Z,4.10
2023-05-22T06:08:25.527Z,5.00
2023-05-22T06:10:53.357Z,3.50
2023-05-22T06:13:21.264Z,4.10
2023-05-22T06:15:49.031Z,3.60
2023-05-22T06:18:17.603Z,4.20
2023-05-22T06:20:45.472Z,3.90
2023-05-22T06:23:13.410Z,4.10
2023-05-22T06:25:41.357Z,3.90
2023-05-22T06:28:09.373Z,3.80
2023-05-22T06:30:40.166Z,3.90
2023-05-22T06:33:09.258Z,3.90
2023-05-22T07:03:10.406Z,4.20
2023-05-22T07:05:38.391Z,4.30
2023-05-22T07:08:06.555Z,3.70
2023-05-22T07:10:34.501Z,4.20
2023-05-22T07:13:02.284Z,4.00
2023-05-22T07:15:30.059Z,3.70
2023-05-22T07:17:58.161Z,3.50
2023-05-22T07:20:26.477Z,4.90
2023-05-22T07:22:54.246Z,3.80
2023-05-22T07:25:22.080Z,3.90
2023-05-22T07:27:49.848Z,3.80
2023-05-22T07:30:17.755Z,3.70
2023-05-22T07:32:46.379Z,3.90
2023-05-22T07:35:14.365Z,3.70
2023-05-22T07:37:42.140Z,3.70
2023-05-22T07:40:11.368Z,4.20
2023-05-22T07:42:39.321Z,3.40
2023-05-22T07:45:07.616Z,3.50
2023-05-22T07:47:35.794Z,3.10
2023-05-22T07:50:04.792Z,4.10
2023-05-22T07:52:33.059Z,3.50
2023-05-22T07:55:01.014Z,3.80
2023-05-22T07:57:29.994Z,2.80
2023-05-22T07:59:59.316Z,4.10
2023-05-22T08:02:27.519Z,3.90
2023-05-22T08:04:55.794Z,3.30
2023-05-22T08:07:25.773Z,3.30
2023-05-22T08:09:53.792Z,3.70
2023-05-22T08:12:21.618Z,3.50
2023-05-22T08:14:49.536Z,4.00
2023-05-22T08:17:17.696Z,3.70
2023-05-22T08:19:46.157Z,3.30
2023-05-22T08:22:14.199Z,4.00
2023-05-22T08:24:42.077Z,4.40
2023-05-22T08:27:10.038Z,3.30
2023-05-22T08:29:38.009Z,3.60
2023-05-22T08:32:06.264Z,3.20
2023-05-22T08:34:34.380Z,3.40
2023-05-22T08:37:02.280Z,3.30
2023-05-22T08:39:31.549Z,3.10
2023-05-22T08:41:59.459Z,3.60
2023-05-22T08:44:27.345Z,2.90
2023-05-22T08:46:56.922Z,3.50
2023-05-22T08:49:27.333Z,3.70
2023-05-22T08:52:05.569Z,3.70
2023-05-22T08:54:34.646Z,3.10
2023-05-22T08:57:03.129Z,2.80
2023-05-22T08:59:31.042Z,2.90
2023-05-22T09:01:59.132Z,2.70
2023-05-22T09:04:28.555Z,3.20
2023-05-22T09:06:56.587Z,2.90
2023-05-22T09:09:24.940Z,2.90
2023-05-22T09:11:54.900Z,3.00
2023-05-22T09:14:22.864Z,3.10
2023-05-22T09:16:53.099Z,3.80
2023-05-22T09:19:21.514Z,3.10
2023-05-22T09:21:49.523Z,2.70
2023-05-22T09:24:17.380Z,2.80
2023-05-22T09:26:45.350Z,3.30
2023-05-22T09:29:13.131Z,2.70
2023-05-22T09:31:42.958Z,3.30
2023-05-22T09:34:14.373Z,3.10
2023-05-22T09:36:42.690Z,2.90
2023-05-22T09:39:11.188Z,3.00
2023-05-22T09:41:40.137Z,2.70
2023-05-22T09:44:15.616Z,3.30
2023-05-22T09:46:47.488Z,2.80
2023-05-22T09:49:17.435Z,2.70
2023-05-22T09:51:49.233Z,2.50
2023-05-22T09:54:19.745Z,3.10
2023-05-22T09:56:51.641Z,3.20
2023-05-22T10:04:18.901Z,2.80
2023-05-22T10:06:51.262Z,2.90
2023-05-22T10:09:22.608Z,2.40
2023-05-22T10:11:53.948Z,3.20
2023-05-22T10:14:22.580Z,2.80
2023-05-22T10:16:51.602Z,3.30
2023-05-22T10:19:19.652Z,2.90
2023-05-22T10:21:48.297Z,3.00
2023-05-22T10:24:16.326Z,2.70
2023-05-22T10:26:44.709Z,2.80
2023-05-22T10:29:17.128Z,2.70
2023-05-22T10:32:14.820Z,2.50
2023-05-22T10:34:54.540Z,3.00
2023-05-22T10:37:29.964Z,2.80
2023-05-22T10:40:05.089Z,2.60
2023-05-22T10:42:33.342Z,2.60
2023-05-22T10:45:04.678Z,2.90
2023-05-22T10:47:36.222Z,2.90
2023-05-22T10:50:11.637Z,2.40
2023-05-22T10:52:40.190Z,3.10
2023-05-22T10:55:09.439Z,2.70
2023-05-22T10:57:42.369Z,2.80
2023-05-22T11:00:15.806Z,2.90
2023-05-22T11:02:45.811Z,2.60
2023-05-22T11:05:23.178Z,2.70
2023-05-22T11:07:51.369Z,2.60
2023-05-22T11:10:51.928Z,2.50
2023-05-22T11:13:20.155Z,2.70
2023-05-22T11:15:48.532Z,2.60
2023-05-22T11:18:17.214Z,2.80
2023-05-22T11:20:46.852Z,2.40
2023-05-22T11:23:15.502Z,2.60
2023-05-22T11:25:43.365Z,2.70
2023-05-22T11:28:12.144Z,2.40
2023-05-22T11:30:40.289Z,3.10
2023-05-22T11:33:08.559Z,2.30
2023-05-22T11:35:38.029Z,2.30
2023-05-22T11:38:07.363Z,2.60
2023-05-22T11:40:35.579Z,2.90
2023-05-22T11:43:04.825Z,2.50
2023-05-22T11:45:37.582Z,3.50
2023-05-22T11:48:05.825Z,2.40
2023-05-22T11:50:42.516Z,3.00
2023-05-22T11:53:11.129Z,2.50
2023-05-22T11:55:39.029Z,2.80
2023-05-22T11:58:06.864Z,3.00
2023-05-22T12:00:34.801Z,2.70
2023-05-22T12:03:03.115Z,2.70
2023-05-22T12:05:32.376Z,3.10
2023-05-22T12:08:00.200Z,3.00
2023-05-22T12:10:28.078Z,2.80
2023-05-22T12:12:56.231Z,2.10
2023-05-22T12:15:24.817Z,2.90
2023-05-22T12:17:55.480Z,2.90
2023-05-22T12:20:23.373Z,2.70
2023-05-22T12:22:51.198Z,2.50
2023-05-22T12:25:20.372Z,2.40
2023-05-22T12:27:48.538Z,3.00
2023-05-22T12:30:17.294Z,2.40
2023-05-22T12:32:51.721Z,2.90
2023-05-22T12:35:19.956Z,2.70
2023-05-22T12:37:49.448Z,3.00
2023-05-22T12:40:17.610Z,3.00
2023-05-22T12:42:45.598Z,2.50
2023-05-22T12:45:14.102Z,2.90
2023-05-22T12:47:42.026Z,2.40
2023-05-22T12:50:10.416Z,3.10
2023-05-22T12:52:38.228Z,2.70
2023-05-22T12:55:06.596Z,2.80
2023-05-22T12:57:34.690Z,2.70
2023-05-22T13:00:02.724Z,2.70
2023-05-22T13:02:30.737Z,2.90
2023-05-22T13:04:59.491Z,2.30
2023-05-22T13:07:27.576Z,2.80
2023-05-22T13:09:55.453Z,2.90
2023-05-22T13:12:23.849Z,2.80
2023-05-22T13:14:51.850Z,2.60
2023-05-22T13:17:19.703Z,2.60
2023-05-22T13:19:47.870Z,2.90
2023-05-22T13:22:15.966Z,3.00
2023-05-22T13:24:43.852Z,2.80
2023-05-22T13:27:12.138Z,3.00
2023-05-22T13:29:40.012Z,3.10
2023-05-22T13:32:07.946Z,2.70
2023-05-22T13:34:35.862Z,3.10
2023-05-22T13:37:04.338Z,2.90
2023-05-22T13:39:32.106Z,2.80
2023-05-22T13:42:00.815Z,3.00
2023-05-22T13:44:28.612Z,3.10
2023-05-22T13:46:56.613Z,3.10
2023-05-22T13:49:24.520Z,2.80
2023-05-22T13:51:52.583Z,2.60
2023-05-22T13:54:20.689Z,2.30
2023-05-22T13:56:48.586Z,3.10
2023-05-22T13:59:16.468Z,2.90
2023-05-22T14:01:44.309Z,2.70
2023-05-22T14:04:12.265Z,2.60
2023-05-22T14:06:40.068Z,2.80
2023-05-22T14:09:09.625Z,3.00
2023-05-22T14:11:37.583Z,2.90
2023-05-22T14:14:05.636Z,2.70
2023-05-22T14:16:33.691Z,2.90
2023-05-22T14:19:01.919Z,2.60
2023-05-22T14:21:31.154Z,2.60
2023-05-22T14:23:59.168Z,2.70
2023-05-22T14:26:27.894Z,2.90
2023-05-22T14:28:55.812Z,2.70
2023-05-22T14:31:23.804Z,2.80
2023-05-22T14:33:51.858Z,2.80
2023-05-22T14:36:19.638Z,2.70
2023-05-22T14:38:47.574Z,2.70
2023-05-22T14:41:16.516Z,2.70
2023-05-22T14:43:44.315Z,3.50
2023-05-22T14:46:12.729Z,2.50
2023-05-22T14:48:40.707Z,2.40
2023-05-22T14:51:08.569Z,3.50
2023-05-22T14:53:36.380Z,3.00
2023-05-22T14:56:04.132Z,2.80
2023-05-22T14:58:32.229Z,2.70
2023-05-22T15:01:00.000Z,3.20
2023-05-22T15:03:27.877Z,2.90
2023-05-22T15:05:55.752Z,2.90
2023-05-22T15:08:23.709Z,2.60
2023-05-22T15:10:51.943Z,2.70
2023-05-22T15:13:19.790Z,2.50
2023-05-22T15:15:47.756Z,3.10
2023-05-22T15:18:16.538Z,2.50
2023-05-22T15:20:44.563Z,3.20
2023-05-22T15:23:12.323Z,2.70
2023-05-22T15:25:40.598Z,3.00
2023-05-22T15:28:08.704Z,2.90
2023-05-22T15:30:38.895Z,2.40
2023-05-22T15:33:07.347Z,3.00
2023-05-22T15:35:35.160Z,2.90
2023-05-22T15:38:03.653Z,2.50
2023-05-22T15:40:31.692Z,2.90
2023-05-22T15:43:02.071Z,3.10
2023-05-22T15:45:30.809Z,3.10
2023-05-22T15:47:58.870Z,2.60
2023-05-22T15:50:26.935Z,2.70
2023-05-22T15:52:54.811Z,2.60
2023-05-22T15:55:22.584Z,2.80
2023-05-22T15:57:50.559Z,3.00
2023-05-22T16:00:21.177Z,2.40
2023-05-22T16:02:49.739Z,2.90
2023-05-22T16:05:17.932Z,3.00
2023-05-22T16:07:46.023Z,2.40
2023-05-22T16:10:13.755Z,3.00
2023-05-22T16:12:41.739Z,2.80
2023-05-22T16:15:10.038Z,2.80
2023-05-22T16:17:38.829Z,2.40
2023-05-22T16:20:08.755Z,2.90
2023-05-22T16:22:47.947Z,3.00
2023-05-22T16:25:17.500Z,2.80
2023-05-22T16:27:45.624Z,2.60
2023-05-22T16:30:17.139Z,2.70
2023-05-22T16:32:48.847Z,3.00
2023-05-22T16:35:17.201Z,3.30
2023-05-22T16:37:45.082Z,2.50
2023-05-22T16:40:13.100Z,3.00
2023-05-22T16:42:40.987Z,2.90
2023-05-22T16:45:09.233Z,2.90
2023-05-22T16:47:37.284Z,2.80
2023-05-22T16:50:06.163Z,2.80
2023-05-22T16:52:34.041Z,3.00
2023-05-22T16:55:02.403Z,3.20
2023-05-22T16:57:30.328Z,3.10
2023-05-22T16:59:58.368Z,2.60
2023-05-22T17:02:26.507Z,3.30
2023-05-22T17:04:54.737Z,2.90
2023-05-22T17:07:22.588Z,3.50
2023-05-22T17:09:50.476Z,2.70
2023-05-22T17:12:18.390Z,3.00
2023-05-22T17:14:46.480Z,2.70
2023-05-22T17:17:14.446Z,3.10
2023-05-22T17:19:42.360Z,2.60
2023-05-22T17:22:10.109Z,3.30
2023-05-22T17:24:38.062Z,2.60
2023-05-22T17:27:06.783Z,2.70
2023-05-22T17:29:34.593Z,2.90
2023-05-22T17:32:05.049Z,3.20
2023-05-22T17:34:33.620Z,3.20
2023-05-22T17:37:01.521Z,3.10
2023-05-22T17:39:30.784Z,3.20
2023-05-22T17:42:00.369Z,3.30
2023-05-22T17:44:28.711Z,3.60
2023-05-22T17:46:56.725Z,3.00
2023-05-22T17:49:24.451Z,3.30
2023-05-22T17:51:52.448Z,3.50
2023-05-22T17:54:20.497Z,3.30
2023-05-22T17:56:48.404Z,3.50
2023-05-22T17:59:16.433Z,3.20
2023-05-22T18:01:44.440Z,3.00
2023-05-22T18:04:12.731Z,3.50
2023-05-22T18:06:40.607Z,3.50
2023-05-22T18:09:08.422Z,3.30
2023-05-22T18:11:36.348Z,3.10
2023-05-22T18:14:04.582Z,3.60
2023-05-22T18:16:32.589Z,3.50
2023-05-22T18:19:00.836Z,3.00
2023-05-22T18:21:28.917Z,3.30
2023-05-22T18:23:56.750Z,3.80
2023-05-22T18:26:24.544Z,3.70
2023-05-22T18:28:52.557Z,3.60
2023-05-22T18:31:20.715Z,4.00
2023-05-22T18:33:48.729Z,3.70
2023-05-22T18:36:16.786Z,3.60
2023-05-22T18:38:44.994Z,3.50
2023-05-22T18:41:12.910Z,3.20
2023-05-22T18:43:40.893Z,3.50
2023-05-22T18:46:09.082Z,4.10
2023-05-22T18:48:36.904Z,3.60
2023-05-22T18:51:04.694Z,3.50
2023-05-22T18:53:32.623Z,3.60
2023-05-22T18:56:00.921Z,4.10
2023-05-22T18:58:29.071Z,3.70
2023-05-22T19:00:57.066Z,3.90
2023-05-22T19:03:25.078Z,4.10
2023-05-22T19:05:53.517Z,3.70
2023-05-22T19:08:21.469Z,4.00
2023-05-22T19:10:49.425Z,4.00
2023-05-22T19:13:17.413Z,4.00
2023-05-22T19:15:45.558Z,4.30
2023-05-22T19:18:13.499Z,4.20
2023-05-22T19:20:41.710Z,4.30
2023-05-22T19:23:11.670Z,3.80
2023-05-22T19:25:40.599Z,4.00
2023-05-22T19:28:08.541Z,4.70
2023-05-22T19:30:36.403Z,4.40
2023-05-22T19:33:05.965Z,3.80
2023-05-22T19:35:35.897Z,4.00
2023-05-22T19:38:04.251Z,4.40
2023-05-22T19:40:32.189Z,4.10
2023-05-22T19:43:02.003Z,4.80
2023-05-22T19:45:29.929Z,4.20
2023-05-22T19:47:57.951Z,3.90
2023-05-22T19:50:26.035Z,4.00
2023-05-22T19:52:54.078Z,4.70
2023-05-22T19:55:22.102Z,4.30
2023-05-22T19:57:50.002Z,3.80
2023-05-22T20:00:18.392Z,4.80
2023-05-22T20:02:47.517Z,4.00
2023-05-22T20:05:16.015Z,4.40
2023-05-22T20:07:43.847Z,3.90
2023-05-22T20:10:11.921Z,4.00
2023-05-22T20:12:40.823Z,4.80
2023-05-22T20:15:10.716Z,4.70
2023-05-22T20:17:41.477Z,4.40
2023-05-22T20:20:10.957Z,3.90
2023-05-22T20:22:38.799Z,4.60
2023-05-22T20:25:08.811Z,4.50
2023-05-22T20:27:37.508Z,4.40
2023-05-22T20:30:07.601Z,4.80
2023-05-22T20:32:35.489Z,4.40
2023-05-22T20:35:04.239Z,4.70
2023-05-22T20:37:35.105Z,4.70
2023-05-22T20:40:03.660Z,4.50
2023-05-22T20:42:32.001Z,4.00
2023-05-22T20:44:59.797Z,4.30
2023-05-22T20:47:27.877Z,4.20
2023-05-22T20:49:56.045Z,5.20
2023-05-22T20:52:24.742Z,6.10
2023-05-22T20:54:52.759Z,4.70
2023-05-22T20:57:20.731Z,4.30
2023-05-22T20:59:48.487Z,4.80
2023-05-22T21:02:17.878Z,4.90
2023-05-22T21:04:45.849Z,4.50
2023-05-22T21:07:13.987Z,4.00
2023-05-22T21:09:41.976Z,4.10
2023-05-22T21:12:09.812Z,4.50
2023-05-22T21:14:37.562Z,4.70
2023-05-22T21:17:05.638Z,4.40
2023-05-22T21:19:33.700Z,4.20
2023-05-22T21:22:01.849Z,4.20
2023-05-22T21:24:31.245Z,5.40
2023-05-22T21:26:59.149Z,4.80
2023-05-22T21:29:27.117Z,5.30
2023-05-22T21:31:55.166Z,4.40
2023-05-22T21:34:23.201Z,4.50
2023-05-22T21:36:51.269Z,4.80
2023-05-22T21:39:19.105Z,5.30
2023-05-22T21:41:48.643Z,4.90
2023-05-22T21:44:18.771Z,4.40
2023-05-22T21:46:46.782Z,5.50
2023-05-22T21:49:15.158Z,4.40
2023-05-22T21:51:42.979Z,4.90
2023-05-22T21:54:10.794Z,4.30
2023-05-22T21:56:38.827Z,4.90
2023-05-22T21:59:06.840Z,5.00
2023-05-22T22:01:35.058Z,5.00
2023-05-22T22:04:03.224Z,4.70
2023-05-22T22:06:31.492Z,4.50
2023-05-22T22:09:00.541Z,4.40
2023-05-22T22:11:28.276Z,5.20
2023-05-22T22:13:56.532Z,4.40
2023-05-22T22:16:24.785Z,4.70
2023-05-22T22:18:53.373Z,4.40
2023-05-22T22:21:21.673Z,4.70
2023-05-22T22:23:49.553Z,5.20
2023-05-22T22:26:18.257Z,5.30
2023-05-22T22:28:46.470Z,4.40
2023-05-22T22:31:14.363Z,4.70
2023-05-22T22:33:42.508Z,5.50
2023-05-22T22:36:10.669Z,4.80
2023-05-22T22:38:38.653Z,4.70
2023-05-22T22:41:09.423Z,5.20
2023-05-22T22:43:37.445Z,5.90
2023-05-22T22:46:05.506Z,4.90
2023-05-22T22:48:33.952Z,5.60
2023-05-22T22:51:02.933Z,5.30
2023-05-22T22:53:30.695Z,5.40
2023-05-22T22:55:59.444Z,5.20
2023-05-22T22:58:27.319Z,5.30
2023-05-22T23:00:55.237Z,5.40
2023-05-22T23:03:23.275Z,5.40
2023-05-22T23:05:51.333Z,7.40
2023-05-22T23:08:20.485Z,6.00
2023-05-22T23:10:48.380Z,5.40
2023-05-22T23:13:16.507Z,5.10
2023-05-22T23:15:44.498Z,5.20
2023-05-22T23:18:14.158Z,5.60
2023-05-22T23:20:42.047Z,5.60
2023-05-22T23:23:09.961Z,5.00
2023-05-22T23:25:38.233Z,5.60
2023-05-22T23:28:07.268Z,6.10
2023-05-22T23:30:35.120Z,5.30
2023-05-22T23:33:03.062Z,5.70
2023-05-22T23:35:31.259Z,5.60
2023-05-22T23:37:59.274Z,5.40
2023-05-22T23:40:27.130Z,5.10
2023-05-22T23:42:54.884Z,6.20
2023-05-22T23:45:22.615Z,5.80
2023-05-22T23:47:50.675Z,5.50
2023-05-22T23:50:18.393Z,5.40
2023-05-22T23:52:48.417Z,5.70
2023-05-22T23:55:16.329Z,4.90
2023-05-22T23:57:44.202Z,5.80
